createdAt,value
2022-11-16T00:02:33.962Z,13.50
2022-11-16T00:06:35.107Z,16.30
2022-11-16T00:10:36.072Z,13.67
2022-11-16T00:14:37.060Z,14.10
2022-11-16T00:18:38.134Z,14.40
2022-11-16T00:22:39.014Z,14.27
2022-11-16T00:26:40.935Z,14.70
2022-11-16T00:30:41.965Z,13.73
2022-11-16T00:34:43.166Z,14.57
2022-11-16T00:38:47.526Z,14.27
2022-11-16T00:42:48.667Z,14.60
2022-11-16T00:46:49.818Z,15.50
2022-11-16T00:50:51.139Z,17.67
2022-11-16T00:54:52.056Z,15.63
2022-11-16T00:58:52.913Z,19.63
2022-11-16T01:02:54.006Z,23.03
2022-11-16T01:06:54.971Z,24.57
2022-11-16T01:10:57.913Z,23.37
2022-11-16T01:14:59.202Z,23.63
2022-11-16T01:19:00.541Z,23.37
2022-11-16T01:23:01.485Z,25.10
2022-11-16T01:27:02.341Z,24.03
2022-11-16T01:31:03.334Z,25.80
2022-11-16T01:35:05.275Z,24.17
2022-11-16T01:39:06.299Z,23.50
2022-11-16T01:43:18.771Z,25.00
2022-11-16T01:47:19.866Z,24.53
2022-11-16T01:51:21.942Z,24.90
2022-11-16T01:55:23.460Z,24.73
2022-11-16T01:59:24.951Z,25.93
2022-11-16T02:03:26.034Z,24.90
2022-11-16T02:08:04.502Z,26.07
2022-11-16T02:12:30.353Z,25.70
2022-11-16T02:16:35.266Z,27.13
2022-11-16T02:21:05.391Z,27.43
2022-11-16T02:25:16.629Z,27.10
2022-11-16T02:29:39.492Z,30.27
2022-11-16T02:33:41.840Z,29.40
2022-11-16T02:37:46.843Z,31.60
2022-11-16T02:41:50.354Z,28.33
2022-11-16T02:45:55.163Z,26.07
2022-11-16T02:50:00.069Z,27.13
2022-11-16T02:54:12.188Z,24.27
2022-11-16T02:58:16.148Z,24.43
2022-11-16T03:02:37.970Z,25.57
2022-11-16T03:06:41.139Z,22.83
2022-11-16T03:11:04.417Z,23.10
2022-11-16T03:15:09.379Z,22.03
2022-11-16T03:19:13.926Z,21.30
2022-11-16T03:23:14.992Z,21.17
2022-11-16T03:27:36.638Z,22.70
2022-11-16T03:31:41.446Z,21.53
2022-11-16T03:35:52.418Z,20.30
2022-11-16T03:39:55.468Z,19.43
2022-11-16T03:43:58.548Z,18.23
2022-11-16T03:47:59.947Z,16.90
2022-11-16T03:52:01.102Z,16.33
2022-11-16T03:56:02.550Z,16.10
2022-11-16T04:00:05.859Z,12.87
2022-11-16T04:04:06.829Z,11.30
2022-11-16T04:08:34.869Z,10.10
2022-11-16T04:12:57.401Z,8.00
2022-11-16T04:17:16.942Z,9.50
2022-11-16T04:21:40.012Z,10.20
2022-11-16T04:25:43.221Z,10.33
2022-11-16T04:29:44.638Z,12.10
2022-11-16T04:34:04.882Z,16.97
2022-11-16T04:38:05.833Z,17.03
2022-11-16T04:42:15.125Z,21.70
2022-11-16T04:46:35.207Z,21.60
2022-11-16T04:50:38.523Z,21.93
2022-11-16T04:54:39.448Z,26.37
2022-11-16T04:58:40.432Z,22.83
2022-11-16T05:02:41.709Z,24.90
2022-11-16T05:06:43.022Z,33.60
2022-11-16T05:10:43.918Z,26.07
2022-11-16T05:14:45.570Z,25.20
2022-11-16T05:18:51.378Z,25.73
2022-11-16T05:22:54.425Z,22.33
2022-11-16T05:26:55.423Z,23.20
2022-11-16T05:30:56.711Z,22.77
2022-11-16T05:34:57.869Z,21.57
2022-11-16T05:38:59.060Z,22.30
2022-11-16T05:43:00.165Z,19.93
2022-11-16T05:47:01.504Z,21.57
2022-11-16T05:51:02.774Z,21.93
2022-11-16T05:55:04.780Z,20.43
2022-11-16T05:59:06.374Z,18.40
2022-11-16T06:03:07.666Z,17.37
2022-11-16T06:07:08.783Z,15.90
2022-11-16T06:11:11.962Z,15.73
2022-11-16T06:15:13.201Z,13.55
2022-11-16T06:19:14.177Z,9.97
2022-11-16T06:23:15.285Z,8.90
2022-11-16T06:27:16.361Z,7.90
2022-11-16T06:31:17.521Z,7.27
2022-11-16T06:35:18.458Z,5.10
2022-11-16T06:39:19.464Z,3.93
2022-11-16T06:43:21.369Z,4.20
2022-11-16T06:47:22.469Z,7.27
2022-11-16T06:51:23.917Z,5.10
2022-11-16T06:55:25.139Z,4.70
2022-11-16T06:59:26.380Z,7.57
2022-11-16T07:03:27.356Z,5.27
2022-11-16T07:07:28.536Z,7.93
2022-11-16T07:11:29.689Z,7.37
2022-11-16T07:15:31.746Z,8.23
2022-11-16T07:19:32.855Z,10.80
2022-11-16T07:23:34.715Z,13.27
2022-11-16T07:27:35.762Z,14.23
2022-11-16T07:31:37.437Z,17.10
2022-11-16T07:35:38.464Z,17.27
2022-11-16T07:39:39.425Z,19.60
2022-11-16T07:43:40.678Z,17.97
2022-11-16T07:47:41.798Z,15.20
2022-11-16T07:51:43.163Z,6.27
2022-11-16T07:55:46.148Z,4.27
2022-11-16T07:59:47.281Z,7.57
2022-11-16T08:03:52.021Z,10.97
2022-11-16T08:07:53.346Z,16.00
2022-11-16T08:11:54.490Z,13.93
2022-11-16T08:16:01.547Z,7.23
2022-11-16T08:20:02.761Z,4.67
2022-11-16T08:24:04.246Z,4.97
2022-11-16T08:28:05.185Z,5.20
2022-11-16T08:32:06.333Z,4.07
2022-11-16T08:36:14.216Z,3.73
2022-11-16T08:40:14.674Z,5.20
2022-11-16T08:44:16.144Z,8.47
2022-11-16T08:48:17.222Z,6.10
2022-11-16T08:52:18.576Z,6.83
2022-11-16T08:56:19.965Z,5.13
2022-11-16T09:00:21.393Z,6.30
2022-11-16T09:04:23.757Z,4.87
2022-11-16T09:08:24.850Z,7.00
2022-11-16T09:12:25.824Z,7.17
2022-11-16T09:16:27.307Z,4.10
2022-11-16T09:20:28.807Z,4.00
2022-11-16T09:24:29.873Z,4.27
2022-11-16T09:28:31.288Z,8.50
2022-11-16T09:32:32.597Z,2.77
2022-11-16T09:36:34.555Z,7.23
2022-11-16T09:40:41.377Z,7.97
2022-11-16T09:45:03.956Z,2.37
2022-11-16T09:49:17.645Z,9.47
2022-11-16T09:53:21.643Z,8.60
2022-11-16T09:57:26.637Z,3.93
2022-11-16T10:01:34.627Z,5.43
2022-11-16T10:05:42.298Z,7.60
2022-11-16T10:09:46.165Z,5.37
2022-11-16T10:14:03.706Z,8.50
2022-11-16T10:18:20.715Z,5.20
2022-11-16T10:22:26.387Z,11.63
2022-11-16T10:26:40.362Z,5.60
2022-11-16T10:31:06.170Z,5.07
2022-11-16T10:35:13.843Z,6.63
2022-11-16T10:39:18.633Z,5.60
2022-11-16T10:43:29.218Z,8.43
2022-11-16T10:47:52.208Z,8.60
2022-11-16T10:51:53.315Z,12.60
2022-11-16T10:56:11.169Z,5.13
2022-11-16T11:00:19.621Z,9.47
2022-11-16T11:04:24.947Z,8.67
2022-11-16T11:08:29.944Z,7.73
2022-11-16T11:12:39.786Z,5.27
2022-11-16T11:16:41.056Z,8.00
2022-11-16T11:20:45.764Z,5.97
2022-11-16T11:24:48.168Z,14.03
2022-11-16T11:28:49.621Z,5.30
2022-11-16T11:32:52.285Z,8.20
2022-11-16T11:36:57.087Z,9.03
2022-11-16T11:41:04.453Z,6.63
2022-11-16T11:45:08.580Z,8.27
2022-11-16T11:49:20.045Z,6.30
2022-11-16T11:53:37.361Z,9.93
2022-11-16T11:57:42.264Z,7.00
2022-11-16T12:02:02.535Z,8.37
2022-11-16T12:06:29.680Z,10.00
2022-11-16T12:10:58.770Z,5.03
2022-11-16T12:15:24.330Z,6.87
2022-11-16T12:19:52.396Z,5.77
2022-11-16T12:24:29.296Z,9.97
2022-11-16T12:28:53.733Z,11.47
2022-11-16T12:33:01.498Z,9.00
2022-11-16T12:37:12.426Z,11.30
2022-11-16T12:41:38.337Z,7.63
2022-11-16T12:46:01.200Z,9.73
2022-11-16T12:50:17.772Z,7.30
2022-11-16T12:54:27.948Z,7.70
2022-11-16T12:58:58.499Z,7.97
2022-11-16T13:03:15.601Z,8.27
2022-11-16T13:07:23.303Z,6.40
2022-11-16T13:11:36.830Z,8.03
2022-11-16T13:15:39.826Z,8.30
2022-11-16T13:19:43.835Z,5.20
2022-11-16T13:24:00.876Z,10.10
2022-11-16T13:28:22.430Z,7.07
2022-11-16T13:32:36.023Z,10.40
2022-11-16T13:36:46.950Z,12.20
2022-11-16T13:40:48.113Z,11.90
2022-11-16T13:44:51.672Z,8.97
2022-11-16T13:48:53.063Z,11.33
2022-11-16T13:57:03.956Z,8.40
2022-11-16T14:01:10.139Z,10.67
2022-11-16T14:05:17.659Z,13.57
2022-11-16T14:09:44.977Z,9.80
2022-11-16T14:13:46.724Z,10.60
2022-11-16T14:18:02.816Z,9.80
2022-11-16T14:22:07.590Z,13.30
2022-11-16T14:26:34.132Z,14.13
2022-11-16T14:30:45.167Z,8.50
2022-11-16T14:34:49.892Z,11.20
2022-11-16T14:38:50.988Z,9.80
2022-11-16T14:43:20.966Z,9.37
2022-11-16T14:47:27.340Z,10.30
2022-11-16T14:51:34.862Z,7.17
2022-11-16T14:55:41.892Z,12.73
2022-11-16T14:59:42.848Z,10.40
2022-11-16T15:03:56.836Z,9.53
2022-11-16T15:07:59.424Z,20.77
2022-11-16T15:12:21.936Z,11.63
2022-11-16T15:16:23.348Z,17.63
2022-11-16T15:20:27.195Z,12.97
2022-11-16T15:24:32.195Z,16.73
2022-11-16T15:28:33.508Z,8.13
2022-11-16T15:32:36.348Z,12.40
2022-11-16T15:36:39.352Z,9.47
2022-11-16T15:40:43.647Z,12.07
2022-11-16T15:44:45.179Z,15.07
2022-11-16T15:48:47.066Z,13.62
2022-11-16T15:52:54.117Z,14.60
2022-11-16T15:56:58.274Z,11.63
2022-11-16T16:00:59.392Z,15.23
2022-11-16T16:05:00.344Z,19.80
2022-11-16T16:09:06.061Z,15.10
2022-11-16T16:13:13.782Z,15.43
2022-11-16T16:17:27.036Z,10.53
2022-11-16T16:21:43.356Z,10.83
2022-11-16T16:25:50.149Z,16.60
2022-11-16T16:29:49.637Z,19.97
2022-11-16T16:33:50.760Z,13.03
2022-11-16T16:37:58.177Z,19.10
2022-11-16T16:42:00.072Z,18.67
2022-11-16T16:46:03.216Z,14.60
2022-11-16T16:50:04.664Z,16.20
2022-11-16T16:54:05.999Z,18.23
2022-11-16T16:58:09.066Z,16.77
2022-11-16T17:02:11.949Z,15.27
2022-11-16T17:06:13.817Z,20.53
2022-11-16T17:10:16.101Z,14.43
2022-11-16T17:14:19.001Z,14.57
2022-11-16T17:18:21.190Z,17.63
2022-11-16T17:22:22.620Z,15.17
2022-11-16T17:26:26.943Z,15.65
2022-11-16T17:30:30.433Z,14.63
2022-11-16T17:34:31.539Z,21.30
2022-11-16T17:38:36.205Z,18.27
2022-11-16T17:42:37.214Z,15.37
2022-11-16T17:46:38.758Z,18.33
2022-11-16T17:50:43.608Z,16.60
2022-11-16T17:54:44.623Z,18.37
2022-11-16T17:58:46.337Z,12.65
2022-11-16T18:02:47.304Z,18.73
2022-11-16T18:06:48.402Z,16.17
2022-11-16T18:10:49.693Z,12.90
2022-11-16T18:15:13.536Z,19.57
2022-11-16T18:19:03.585Z,20.92
2022-11-16T18:23:05.098Z,16.20
2022-11-16T18:27:06.517Z,14.70
2022-11-16T18:31:10.956Z,16.67
2022-11-16T18:35:12.324Z,13.07
2022-11-16T18:39:13.332Z,19.83
2022-11-16T18:43:14.680Z,17.60
2022-11-16T18:47:15.921Z,18.57
2022-11-16T18:51:18.303Z,11.40
2022-11-16T18:55:19.648Z,14.43
2022-11-16T18:59:20.741Z,17.53
2022-11-16T19:03:22.191Z,11.87
2022-11-16T19:07:23.486Z,18.50
2022-11-16T19:11:26.235Z,13.23
2022-11-16T19:15:27.341Z,17.80
2022-11-16T19:19:29.382Z,16.63
2022-11-16T19:23:37.642Z,13.17
2022-11-16T19:27:39.096Z,13.20
2022-11-16T19:31:40.349Z,23.60
2022-11-16T19:35:41.315Z,23.30
2022-11-16T19:39:42.477Z,19.13
2022-11-16T19:43:43.549Z,17.57
2022-11-16T19:47:44.567Z,21.10
2022-11-16T19:51:45.686Z,18.00
2022-11-16T19:55:54.849Z,25.53
2022-11-16T19:59:55.903Z,18.80
2022-11-16T20:03:59.256Z,18.23
2022-11-16T20:08:00.248Z,19.32
2022-11-16T20:12:01.621Z,18.23
2022-11-16T20:16:02.850Z,16.27
2022-11-16T20:20:04.528Z,12.83
2022-11-16T20:24:08.313Z,11.60
2022-11-16T20:28:09.681Z,12.07
2022-11-16T20:32:10.763Z,16.33
2022-11-16T20:36:11.678Z,14.53
2022-11-16T20:40:13.483Z,14.70
2022-11-16T20:44:23.000Z,13.10
2022-11-16T20:48:24.010Z,18.27
2022-11-16T20:52:25.206Z,19.90
2022-11-16T20:56:26.845Z,17.77
2022-11-16T21:00:27.943Z,16.70
2022-11-16T21:04:29.021Z,15.53
2022-11-16T21:08:30.300Z,22.20
2022-11-16T21:12:42.805Z,21.60
2022-11-16T21:16:42.626Z,13.93
2022-11-16T21:20:43.642Z,18.20
2022-11-16T21:24:44.640Z,18.57
2022-11-16T21:28:45.885Z,13.57
2022-11-16T21:32:46.955Z,16.87
2022-11-16T21:36:48.160Z,13.27
2022-11-16T21:40:49.952Z,13.27
2022-11-16T21:44:50.968Z,12.63
2022-11-16T21:48:55.051Z,12.73
2022-11-16T21:52:57.752Z,13.07
2022-11-16T21:56:58.880Z,21.50
2022-11-16T22:01:01.599Z,17.57
2022-11-16T22:05:21.586Z,13.80
2022-11-16T22:09:22.980Z,20.27
2022-11-16T22:13:23.931Z,12.93
2022-11-16T22:17:25.253Z,17.03
2022-11-16T22:21:26.235Z,18.63
2022-11-16T22:25:27.319Z,19.27
2022-11-16T22:29:28.422Z,14.40
2022-11-16T22:33:30.355Z,13.80
2022-11-16T22:37:31.343Z,10.70
2022-11-16T22:41:32.460Z,16.77
2022-11-16T22:45:33.576Z,19.40
2022-11-16T22:49:34.511Z,14.83
2022-11-16T22:53:35.989Z,13.53
2022-11-16T22:57:37.408Z,17.93
2022-11-16T23:01:38.739Z,21.30
2022-11-16T23:05:39.671Z,12.23
2022-11-16T23:09:40.574Z,11.67
2022-11-16T23:14:01.227Z,13.03
2022-11-16T23:18:02.363Z,9.23
2022-11-16T23:22:22.915Z,11.50
2022-11-16T23:26:43.309Z,10.60
2022-11-16T23:30:44.674Z,12.90
2022-11-16T23:34:45.664Z,8.83
2022-11-16T23:38:46.780Z,11.53
2022-11-16T23:43:06.298Z,11.00
2022-11-16T23:47:07.351Z,10.17
2022-11-16T23:51:08.324Z,8.80
2022-11-16T23:55:09.433Z,12.63
2022-11-16T23:59:10.381Z,11.33
